sensor_id;sensor_type;location;lat;lon;timestamp;pressure;altitude;pressure_sealevel;temperature;humidity
18795;BME280;29610;49.022;12.114;2023-02-21T00:02:19;98131.34;;;5.10;100.00
18795;BME280;29610;49.022;12.114;2023-02-21T00:05:05;98130.25;;;5.11;100.00
18795;BME280;29610;49.022;12.114;2023-02-21T00:07:53;98131.66;;;4.98;100.00
18795;BME280;29610;49.022;12.114;2023-02-21T00:10:39;98131.66;;;4.93;100.00
18795;BME280;29610;49.022;12.114;2023-02-21T00:13:25;98120.91;;;4.93;100.00
18795;BME280;29610;49.022;12.114;2023-02-21T00:16:15;98136.53;;;4.96;100.00
18795;BME280;29610;49.022;12.114;2023-02-21T00:19:01;98127.91;;;4.94;100.00
18795;BME280;29610;49.022;12.114;2023-02-21T00:21:48;98130.88;;;4.98;100.00
18795;BME280;29610;49.022;12.114;2023-02-21T00:24:35;98126.81;;;5.00;100.00
18795;BME280;29610;49.022;12.114;2023-02-21T00:27:23;98124.41;;;4.94;100.00
18795;BME280;29610;49.022;12.114;2023-02-21T00:30:10;98112.81;;;4.93;100.00
18795;BME280;29610;49.022;12.114;2023-02-21T00:32:57;98117.41;;;4.93;100.00
18795;BME280;29610;49.022;12.114;2023-02-21T00:35:44;98108.97;;;5.09;100.00
18795;BME280;29610;49.022;12.114;2023-02-21T00:38:30;98099.75;;;5.25;100.00
18795;BME280;29610;49.022;12.114;2023-02-21T00:41:17;98107.63;;;5.17;100.00
18795;BME280;29610;49.022;12.114;2023-02-21T00:44:03;98115.47;;;5.03;100.00
18795;BME280;29610;49.022;12.114;2023-02-21T00:46:49;98111.75;;;4.94;100.00
18795;BME280;29610;49.022;12.114;2023-02-21T00:49:36;98103.16;;;4.82;100.00
18795;BME280;29610;49.022;12.114;2023-02-21T00:52:22;98108.81;;;4.81;100.00
18795;BME280;29610;49.022;12.114;2023-02-21T00:55:08;98111.78;;;4.84;100.00
18795;BME280;29610;49.022;12.114;2023-02-21T00:57:56;98115.00;;;4.96;100.00
18795;BME280;29610;49.022;12.114;2023-02-21T01:00:42;98109.31;;;4.98;100.00
18795;BME280;29610;49.022;12.114;2023-02-21T01:03:28;98104.47;;;4.95;100.00
18795;BME280;29610;49.022;12.114;2023-02-21T01:06:14;98108.22;;;4.99;100.00
18795;BME280;29610;49.022;12.114;2023-02-21T01:09:00;98103.13;;;4.92;100.00
18795;BME280;29610;49.022;12.114;2023-02-21T01:11:48;98097.44;;;5.04;100.00
18795;BME280;29610;49.022;12.114;2023-02-21T01:14:36;98092.22;;;5.22;100.00
18795;BME280;29610;49.022;12.114;2023-02-21T01:17:25;98101.59;;;5.30;100.00
18795;BME280;29610;49.022;12.114;2023-02-21T01:20:13;98099.72;;;5.35;100.00
18795;BME280;29610;49.022;12.114;2023-02-21T01:23:01;98105.06;;;5.40;100.00
18795;BME280;29610;49.022;12.114;2023-02-21T01:25:47;98101.66;;;5.25;100.00
18795;BME280;29610;49.022;12.114;2023-02-21T01:28:33;98100.88;;;5.19;100.00
18795;BME280;29610;49.022;12.114;2023-02-21T01:31:21;98092.03;;;5.14;100.00
18795;BME280;29610;49.022;12.114;2023-02-21T01:34:07;98089.91;;;5.06;100.00
18795;BME280;29610;49.022;12.114;2023-02-21T01:36:53;98097.19;;;5.00;100.00
18795;BME280;29610;49.022;12.114;2023-02-21T01:39:39;98096.91;;;5.02;100.00
18795;BME280;29610;49.022;12.114;2023-02-21T01:42:26;98099.13;;;4.85;100.00
18795;BME280;29610;49.022;12.114;2023-02-21T01:45:42;98094.75;;;4.99;100.00
18795;BME280;29610;49.022;12.114;2023-02-21T01:48:33;98090.22;;;4.89;100.00
18795;BME280;29610;49.022;12.114;2023-02-21T01:51:25;98098.81;;;4.96;100.00
18795;BME280;29610;49.022;12.114;2023-02-21T01:54:12;98089.13;;;4.90;100.00
18795;BME280;29610;49.022;12.114;2023-02-21T01:57:00;98088.09;;;4.86;100.00
18795;BME280;29610;49.022;12.114;2023-02-21T01:59:48;98094.28;;;4.82;100.00
18795;BME280;29610;49.022;12.114;2023-02-21T02:02:50;98084.38;;;4.62;100.00
18795;BME280;29610;49.022;12.114;2023-02-21T02:05:41;98079.56;;;4.44;100.00
18795;BME280;29610;49.022;12.114;2023-02-21T02:08:30;98077.22;;;4.22;100.00
18795;BME280;29610;49.022;12.114;2023-02-21T02:11:35;98072.91;;;4.11;100.00
18795;BME280;29610;49.022;12.114;2023-02-21T02:15:00;98071.59;;;3.99;100.00
18795;BME280;29610;49.022;12.114;2023-02-21T02:17:49;98075.31;;;3.88;100.00
18795;BME280;29610;49.022;12.114;2023-02-21T02:24:31;98070.22;;;3.66;100.00
18795;BME280;29610;49.022;12.114;2023-02-21T02:27:54;98056.78;;;3.41;100.00
18795;BME280;29610;49.022;12.114;2023-02-21T02:34:53;98065.34;;;3.48;100.00
18795;BME280;29610;49.022;12.114;2023-02-21T02:37:30;98057.53;;;3.27;100.00
18795;BME280;29610;49.022;12.114;2023-02-21T02:40:10;98058.03;;;3.14;100.00
18795;BME280;29610;49.022;12.114;2023-02-21T02:42:57;98073.09;;;3.25;100.00
18795;BME280;29610;49.022;12.114;2023-02-21T02:45:35;98074.47;;;3.32;100.00
18795;BME280;29610;49.022;12.114;2023-02-21T02:48:13;98068.31;;;3.47;100.00
18795;BME280;29610;49.022;12.114;2023-02-21T02:50:47;98067.00;;;3.49;100.00
18795;BME280;29610;49.022;12.114;2023-02-21T02:53:25;98070.75;;;3.38;100.00
18795;BME280;29610;49.022;12.114;2023-02-21T02:55:57;98065.63;;;3.37;100.00
18795;BME280;29610;49.022;12.114;2023-02-21T02:58:33;98070.75;;;3.38;100.00
18795;BME280;29610;49.022;12.114;2023-02-21T03:01:22;98067.78;;;3.40;100.00
18795;BME280;29610;49.022;12.114;2023-02-21T03:04:20;98064.56;;;3.43;100.00
18795;BME280;29610;49.022;12.114;2023-02-21T03:07:03;98064.28;;;3.54;100.00
18795;BME280;29610;49.022;12.114;2023-02-21T03:09:50;98058.63;;;3.41;100.00
18795;BME280;29610;49.022;12.114;2023-02-21T03:12:32;98076.34;;;3.27;100.00
18795;BME280;29610;49.022;12.114;2023-02-21T03:15:09;98062.66;;;3.28;100.00
18795;BME280;29610;49.022;12.114;2023-02-21T03:17:46;98076.84;;;3.14;100.00
18795;BME280;29610;49.022;12.114;2023-02-21T03:20:17;98071.47;;;3.14;100.00
18795;BME280;29610;49.022;12.114;2023-02-21T03:22:51;98071.16;;;3.05;100.00
18795;BME280;29610;49.022;12.114;2023-02-21T03:25:22;98072.22;;;2.99;100.00
18795;BME280;29610;49.022;12.114;2023-02-21T03:27:55;98078.19;;;3.11;100.00
18795;BME280;29610;49.022;12.114;2023-02-21T03:30:28;98077.94;;;3.23;100.00
18795;BME280;29610;49.022;12.114;2023-02-21T03:32:58;98071.75;;;3.27;100.00
18795;BME280;29610;49.022;12.114;2023-02-21T03:35:29;98078.22;;;3.31;100.00
18795;BME280;29610;49.022;12.114;2023-02-21T03:37:59;98074.47;;;3.32;100.00
18795;BME280;29610;49.022;12.114;2023-02-21T03:40:30;98076.09;;;3.33;100.00
18795;BME280;29610;49.022;12.114;2023-02-21T03:43:03;98072.56;;;3.23;100.00
18795;BME280;29610;49.022;12.114;2023-02-21T03:45:40;98071.50;;;3.24;100.00
18795;BME280;29610;49.022;12.114;2023-02-21T03:48:14;98077.66;;;3.24;100.00
18795;BME280;29610;49.022;12.114;2023-02-21T03:50:58;98074.97;;;3.14;100.00
18795;BME280;29610;49.022;12.114;2023-02-21T03:53:32;98082.50;;;3.17;100.00
18795;BME280;29610;49.022;12.114;2023-02-21T03:56:03;98078.44;;;3.15;100.00
18795;BME280;29610;49.022;12.114;2023-02-21T03:58:58;98084.66;;;3.20;100.00
18795;BME280;29610;49.022;12.114;2023-02-21T04:01:28;98088.91;;;3.16;100.00
18795;BME280;29610;49.022;12.114;2023-02-21T04:03:56;98077.41;;;3.21;100.00
18795;BME280;29610;49.022;12.114;2023-02-21T04:06:26;98080.59;;;3.13;100.00
18795;BME280;29610;49.022;12.114;2023-02-21T04:08:57;98075.72;;;2.99;100.00
18795;BME280;29610;49.022;12.114;2023-02-21T04:11:26;98080.53;;;2.97;100.00
18795;BME280;29610;49.022;12.114;2023-02-21T04:13:55;98079.47;;;2.93;100.00
18795;BME280;29610;49.022;12.114;2023-02-21T04:16:24;98081.28;;;2.83;100.00
18795;BME280;29610;49.022;12.114;2023-02-21T04:18:53;98085.53;;;2.69;100.00
18795;BME280;29610;49.022;12.114;2023-02-21T04:21:24;98089.25;;;2.63;100.00
18795;BME280;29610;49.022;12.114;2023-02-21T04:23:56;98085.72;;;2.57;100.00
18795;BME280;29610;49.022;12.114;2023-02-21T04:26:29;98092.47;;;2.60;100.00
18795;BME280;29610;49.022;12.114;2023-02-21T04:28:58;98093.19;;;2.45;100.00
18795;BME280;29610;49.022;12.114;2023-02-21T04:31:26;98084.91;;;2.52;100.00
18795;BME280;29610;49.022;12.114;2023-02-21T04:33:58;98082.28;;;2.67;100.00
18795;BME280;29610;49.022;12.114;2023-02-21T04:36:39;98083.69;;;2.79;100.00
18795;BME280;29610;49.022;12.114;2023-02-21T04:39:10;98082.56;;;2.70;100.00
18795;BME280;29610;49.022;12.114;2023-02-21T04:41:39;98083.41;;;2.81;100.00
18795;BME280;29610;49.022;12.114;2023-02-21T04:44:08;98084.50;;;2.80;100.00
18795;BME280;29610;49.022;12.114;2023-02-21T04:46:37;98080.72;;;2.81;100.00
18795;BME280;29610;49.022;12.114;2023-02-21T04:49:06;98092.50;;;2.70;100.00
18795;BME280;29610;49.022;12.114;2023-02-21T04:51:35;98091.72;;;2.79;100.00
18795;BME280;29610;49.022;12.114;2023-02-21T04:54:04;98095.72;;;2.72;100.00
18795;BME280;29610;49.022;12.114;2023-02-21T04:56:35;98100.31;;;2.76;100.00
18795;BME280;29610;49.022;12.114;2023-02-21T04:59:06;98094.97;;;2.81;100.00
18795;BME280;29610;49.022;12.114;2023-02-21T05:01:34;98098.22;;;2.83;100.00
18795;BME280;29610;49.022;12.114;2023-02-21T05:04:04;98097.41;;;2.83;100.00
18795;BME280;29610;49.022;12.114;2023-02-21T05:06:33;98093.91;;;2.77;100.00
18795;BME280;29610;49.022;12.114;2023-02-21T05:09:02;98093.63;;;2.79;100.00
18795;BME280;29610;49.022;12.114;2023-02-21T05:11:34;98082.28;;;2.67;100.00
18795;BME280;29610;49.022;12.114;2023-02-21T05:14:03;98082.56;;;2.65;100.00
18795;BME280;29610;49.022;12.114;2023-02-21T05:16:32;98073.41;;;2.61;100.00
18795;BME280;29610;49.022;12.114;2023-02-21T05:19:01;98068.53;;;2.48;100.00
18795;BME280;29610;49.022;12.114;2023-02-21T05:21:34;98068.19;;;2.40;100.00
18795;BME280;29610;49.022;12.114;2023-02-21T05:24:05;98072.16;;;2.27;100.00
18795;BME280;29610;49.022;12.114;2023-02-21T05:26:37;98070.59;;;2.36;100.00
18795;BME280;29610;49.022;12.114;2023-02-21T05:29:06;98064.31;;;2.67;100.00
18795;BME280;29610;49.022;12.114;2023-02-21T05:31:34;98066.59;;;3.00;100.00
18795;BME280;29610;49.022;12.114;2023-02-21T05:34:03;98052.44;;;3.35;100.00
18795;BME280;29610;49.022;12.114;2023-02-21T05:36:32;98063.78;;;3.57;100.00
18795;BME280;29610;49.022;12.114;2023-02-21T05:39:02;98060.81;;;3.84;100.00
18795;BME280;29610;49.022;12.114;2023-02-21T05:41:31;98064.03;;;3.96;100.00
18795;BME280;29610;49.022;12.114;2023-02-21T05:44:03;98056.78;;;3.96;100.00
18795;BME280;29610;49.022;12.114;2023-02-21T05:46:34;98056.78;;;4.06;100.00
18795;BME280;29610;49.022;12.114;2023-02-21T05:49:04;98059.47;;;4.16;100.00
18795;BME280;29610;49.022;12.114;2023-02-21T05:51:35;98046.81;;;4.17;100.00
18795;BME280;29610;49.022;12.114;2023-02-21T05:54:05;98055.13;;;4.25;100.00
18795;BME280;29610;49.022;12.114;2023-02-21T05:56:37;98048.66;;;4.31;100.00
18795;BME280;29610;49.022;12.114;2023-02-21T05:59:08;98057.53;;;4.37;100.00
18795;BME280;29610;49.022;12.114;2023-02-21T06:01:37;98054.25;;;4.50;100.00
18795;BME280;29610;49.022;12.114;2023-02-21T06:04:07;98056.38;;;4.63;100.00
18795;BME280;29610;49.022;12.114;2023-02-21T06:06:36;98064.91;;;4.85;100.00
18795;BME280;29610;49.022;12.114;2023-02-21T06:09:06;98061.34;;;5.00;100.00
18795;BME280;29610;49.022;12.114;2023-02-21T06:11:37;98059.69;;;5.14;100.00
18795;BME280;29610;49.022;12.114;2023-02-21T06:14:15;98054.78;;;5.21;100.00
18795;BME280;29610;49.022;12.114;2023-02-21T06:16:45;98056.13;;;5.23;100.00
18795;BME280;29610;49.022;12.114;2023-02-21T06:19:15;98058.78;;;5.28;100.00
18795;BME280;29610;49.022;12.114;2023-02-21T06:21:45;98065.47;;;5.41;100.00
18795;BME280;29610;49.022;12.114;2023-02-21T06:24:14;98064.06;;;5.48;100.00
18795;BME280;29610;49.022;12.114;2023-02-21T06:26:43;98065.09;;;5.52;100.00
18795;BME280;29610;49.022;12.114;2023-02-21T06:29:13;98069.16;;;5.50;100.00
18795;BME280;29610;49.022;12.114;2023-02-21T06:31:42;98071.53;;;5.61;100.00
18795;BME280;29610;49.022;12.114;2023-02-21T06:34:11;98075.03;;;5.57;100.00
18795;BME280;29610;49.022;12.114;2023-02-21T06:36:40;98070.63;;;5.76;100.00
18795;BME280;29610;49.022;12.114;2023-02-21T06:39:11;98075.41;;;5.84;100.00
18795;BME280;29610;49.022;12.114;2023-02-21T06:41:39;98073.47;;;5.94;100.00
18795;BME280;29610;49.022;12.114;2023-02-21T06:44:08;98073.41;;;6.00;100.00
18795;BME280;29610;49.022;12.114;2023-02-21T06:46:38;98073.75;;;6.22;100.00
18795;BME280;29610;49.022;12.114;2023-02-21T06:49:07;98071.81;;;6.27;100.00
18795;BME280;29610;49.022;12.114;2023-02-21T06:51:38;98075.47;;;6.41;100.00
18795;BME280;29610;49.022;12.114;2023-02-21T06:54:08;98077.56;;;6.49;100.00
18795;BME280;29610;49.022;12.114;2023-02-21T06:56:37;98080.19;;;6.54;100.00
18795;BME280;29610;49.022;12.114;2023-02-21T06:59:05;98084.66;;;6.64;100.00
18795;BME280;29610;49.022;12.114;2023-02-21T07:01:35;98090.50;;;6.76;100.00
18795;BME280;29610;49.022;12.114;2023-02-21T07:04:05;98087.56;;;6.96;100.00
18795;BME280;29610;49.022;12.114;2023-02-21T07:06:34;98079.69;;;6.99;100.00
18795;BME280;29610;49.022;12.114;2023-02-21T07:09:03;98084.84;;;6.96;100.00
18795;BME280;29610;49.022;12.114;2023-02-21T07:11:33;98078.00;;;6.80;100.00
18795;BME280;29610;49.022;12.114;2023-02-21T07:14:03;98079.59;;;6.86;100.00
18795;BME280;29610;49.022;12.114;2023-02-21T07:16:32;98082.50;;;6.89;100.00
18795;BME280;29610;49.022;12.114;2023-02-21T07:19:01;98077.47;;;6.83;100.00
18795;BME280;29610;49.022;12.114;2023-02-21T07:21:31;98072.91;;;6.78;100.00
18795;BME280;29610;49.022;12.114;2023-02-21T07:23:59;98074.56;;;6.74;100.00
18795;BME280;29610;49.022;12.114;2023-02-21T07:26:28;98083.13;;;6.81;100.00
18795;BME280;29610;49.022;12.114;2023-02-21T07:28:57;98081.66;;;6.94;100.00
18795;BME280;29610;49.022;12.114;2023-02-21T07:31:25;98086.84;;;7.09;100.00
18795;BME280;29610;49.022;12.114;2023-02-21T07:33:54;98089.88;;;7.26;100.00
18795;BME280;29610;49.022;12.114;2023-02-21T07:36:23;98085.09;;;7.41;100.00
18795;BME280;29610;49.022;12.114;2023-02-21T07:38:53;98088.44;;;7.52;100.00
18795;BME280;29610;49.022;12.114;2023-02-21T07:41:21;98085.66;;;7.76;100.00
18795;BME280;29610;49.022;12.114;2023-02-21T07:43:50;98090.19;;;7.99;100.00
18795;BME280;29610;49.022;12.114;2023-02-21T07:46:19;98096.03;;;8.24;100.00
18795;BME280;29610;49.022;12.114;2023-02-21T07:48:47;98098.88;;;8.33;100.00
18795;BME280;29610;49.022;12.114;2023-02-21T07:51:16;98098.13;;;8.59;100.00
18795;BME280;29610;49.022;12.114;2023-02-21T07:53:45;98093.22;;;8.75;100.00
18795;BME280;29610;49.022;12.114;2023-02-21T07:56:15;98098.84;;;8.78;100.00
18795;BME280;29610;49.022;12.114;2023-02-21T07:58:44;98105.09;;;9.06;100.00
18795;BME280;29610;49.022;12.114;2023-02-21T08:01:12;98108.00;;;9.10;100.00
18795;BME280;29610;49.022;12.114;2023-02-21T08:03:42;98110.28;;;9.16;100.00
18795;BME280;29610;49.022;12.114;2023-02-21T08:06:11;98115.22;;;9.28;100.00
18795;BME280;29610;49.022;12.114;2023-02-21T08:08:40;98112.59;;;9.23;100.00
18795;BME280;29610;49.022;12.114;2023-02-21T08:11:08;98117.53;;;9.34;100.00
18795;BME280;29610;49.022;12.114;2023-02-21T08:13:38;98110.50;;;9.33;100.00
18795;BME280;29610;49.022;12.114;2023-02-21T08:16:07;98109.25;;;9.53;100.00
18795;BME280;29610;49.022;12.114;2023-02-21T08:18:36;98117.38;;;9.66;100.00
18795;BME280;29610;49.022;12.114;2023-02-21T08:21:09;98120.47;;;9.73;100.00
18795;BME280;29610;49.022;12.114;2023-02-21T08:23:38;98121.69;;;9.81;100.00
18795;BME280;29610;49.022;12.114;2023-02-21T08:26:06;98124.28;;;9.86;100.00
18795;BME280;29610;49.022;12.114;2023-02-21T08:28:35;98129.47;;;9.96;100.00
18795;BME280;29610;49.022;12.114;2023-02-21T08:31:06;98118.69;;;10.04;100.00
18795;BME280;29610;49.022;12.114;2023-02-21T08:33:35;98118.59;;;9.96;100.00
18795;BME280;29610;49.022;12.114;2023-02-21T08:36:05;98118.78;;;9.64;100.00
18795;BME280;29610;49.022;12.114;2023-02-21T08:38:34;98119.44;;;9.47;100.00
18795;BME280;29610;49.022;12.114;2023-02-21T08:41:03;98120.53;;;9.46;100.00
18795;BME280;29610;49.022;12.114;2023-02-21T08:43:32;98118.50;;;9.52;100.00
18795;BME280;29610;49.022;12.114;2023-02-21T08:46:01;98122.34;;;9.51;100.00
18795;BME280;29610;49.022;12.114;2023-02-21T08:48:31;98105.34;;;9.45;100.00
18795;BME280;29610;49.022;12.114;2023-02-21T08:51:00;98107.88;;;9.55;100.00
18795;BME280;29610;49.022;12.114;2023-02-21T08:53:30;98106.53;;;9.66;100.00
18795;BME280;29610;49.022;12.114;2023-02-21T08:56:00;98103.50;;;9.68;100.00
18795;BME280;29610;49.022;12.114;2023-02-21T08:58:29;98102.81;;;9.62;100.00
18795;BME280;29610;49.022;12.114;2023-02-21T09:00:59;98104.38;;;9.77;100.00
18795;BME280;29610;49.022;12.114;2023-02-21T09:03:30;98106.13;;;9.73;100.00
18795;BME280;29610;49.022;12.114;2023-02-21T09:05:59;98096.13;;;9.82;100.00
18795;BME280;29610;49.022;12.114;2023-02-21T09:08:30;98108.06;;;9.94;100.00
18795;BME280;29610;49.022;12.114;2023-02-21T09:11:00;98110.75;;;9.94;100.00
18795;BME280;29610;49.022;12.114;2023-02-21T09:13:30;98109.78;;;9.90;100.00
18795;BME280;29610;49.022;12.114;2023-02-21T09:16:02;98109.09;;;10.07;100.00
18795;BME280;29610;49.022;12.114;2023-02-21T09:18:33;98114.72;;;10.24;100.00
18795;BME280;29610;49.022;12.114;2023-02-21T09:21:02;98108.97;;;10.25;100.00
18795;BME280;29610;49.022;12.114;2023-02-21T09:23:31;98111.06;;;10.28;100.00
18795;BME280;29610;49.022;12.114;2023-02-21T09:26:00;98114.84;;;10.41;100.00
18795;BME280;29610;49.022;12.114;2023-02-21T09:28:29;98122.13;;;10.54;100.00
18795;BME280;29610;49.022;12.114;2023-02-21T09:30:58;98126.50;;;10.64;100.00
18795;BME280;29610;49.022;12.114;2023-02-21T09:33:27;98121.81;;;10.56;100.00
18795;BME280;29610;49.022;12.114;2023-02-21T09:36:00;98120.63;;;10.70;100.00
18795;BME280;29610;49.022;12.114;2023-02-21T09:38:30;98119.75;;;10.92;100.00
18795;BME280;29610;49.022;12.114;2023-02-21T09:41:03;98121.06;;;10.94;100.00
18795;BME280;29610;49.022;12.114;2023-02-21T09:43:35;98116.81;;;11.19;100.00
18795;BME280;29610;49.022;12.114;2023-02-21T09:46:12;98118.13;;;11.21;100.00
18795;BME280;29610;49.022;12.114;2023-02-21T09:48:43;98117.03;;;11.31;100.00
18795;BME280;29610;49.022;12.114;2023-02-21T09:51:16;98122.81;;;11.29;100.00
18795;BME280;29610;49.022;12.114;2023-02-21T09:53:47;98111.00;;;11.51;100.00
18795;BME280;29610;49.022;12.114;2023-02-21T09:56:25;98104.38;;;11.74;100.00
18795;BME280;29610;49.022;12.114;2023-02-21T09:58:56;98102.59;;;11.87;100.00
18795;BME280;29610;49.022;12.114;2023-02-21T10:01:44;98105.34;;;11.87;100.00
18795;BME280;29610;49.022;12.114;2023-02-21T10:04:24;98107.06;;;11.82;100.00
18795;BME280;29610;49.022;12.114;2023-02-21T10:07:04;98108.53;;;12.06;100.00
18795;BME280;29610;49.022;12.114;2023-02-21T10:09:42;98103.22;;;12.43;100.00
18795;BME280;29610;49.022;12.114;2023-02-21T10:12:23;98104.22;;;12.93;100.00
18795;BME280;29610;49.022;12.114;2023-02-21T10:15:15;98111.56;;;13.48;100.00
18795;BME280;29610;49.022;12.114;2023-02-21T10:17:55;98101.16;;;13.70;100.00
18795;BME280;29610;49.022;12.114;2023-02-21T10:20:39;98094.69;;;14.16;100.00
18795;BME280;29610;49.022;12.114;2023-02-21T10:23:16;98102.81;;;14.45;100.00
18795;BME280;29610;49.022;12.114;2023-02-21T10:25:46;98092.69;;;14.45;100.00
18795;BME280;29610;49.022;12.114;2023-02-21T10:28:19;98097.16;;;14.50;100.00
18795;BME280;29610;49.022;12.114;2023-02-21T10:30:51;98097.06;;;15.27;100.00
18795;BME280;29610;49.022;12.114;2023-02-21T10:33:23;98088.63;;;15.56;100.00
18795;BME280;29610;49.022;12.114;2023-02-21T10:35:52;98098.69;;;15.64;100.00
18795;BME280;29610;49.022;12.114;2023-02-21T10:38:26;98089.06;;;15.70;100.00
18795;BME280;29610;49.022;12.114;2023-02-21T10:40:57;98093.88;;;15.37;100.00
18795;BME280;29610;49.022;12.114;2023-02-21T10:43:33;98091.78;;;15.22;100.00
18795;BME280;29610;49.022;12.114;2023-02-21T10:46:14;98091.47;;;15.12;100.00
18795;BME280;29610;49.022;12.114;2023-02-21T10:48:51;98093.19;;;15.28;100.00
18795;BME280;29610;49.022;12.114;2023-02-21T10:51:30;98092.28;;;15.48;100.00
18795;BME280;29610;49.022;12.114;2023-02-21T10:54:20;98089.44;;;15.45;100.00
18795;BME280;29610;49.022;12.114;2023-02-21T10:56:51;98082.50;;;15.99;100.00
18795;BME280;29610;49.022;12.114;2023-02-21T10:59:25;98076.03;;;15.91;100.00
18795;BME280;29610;49.022;12.114;2023-02-21T11:01:56;98067.97;;;16.10;100.00
18795;BME280;29610;49.022;12.114;2023-02-21T11:04:30;98065.69;;;16.40;100.00
18795;BME280;29610;49.022;12.114;2023-02-21T11:07:06;98065.78;;;16.87;100.00
18795;BME280;29610;49.022;12.114;2023-02-21T11:09:40;98065.69;;;16.68;100.00
18795;BME280;29610;49.022;12.114;2023-02-21T11:12:21;98061.72;;;15.98;100.00
18795;BME280;29610;49.022;12.114;2023-02-21T11:15:16;98062.59;;;16.14;100.00
18795;BME280;29610;49.022;12.114;2023-02-21T11:18:02;98054.06;;;16.31;100.00
18795;BME280;29610;49.022;12.114;2023-02-21T11:20:31;98056.44;;;16.33;100.00
18795;BME280;29610;49.022;12.114;2023-02-21T11:22:59;98048.81;;;16.26;100.00
18795;BME280;29610;49.022;12.114;2023-02-21T11:25:31;98045.59;;;16.64;100.00
18795;BME280;29610;49.022;12.114;2023-02-21T11:28:05;98040.81;;;16.61;100.00
18795;BME280;29610;49.022;12.114;2023-02-21T11:30:36;98035.69;;;17.21;100.00
18795;BME280;29610;49.022;12.114;2023-02-21T11:33:08;98038.88;;;17.08;100.00
18795;BME280;29610;49.022;12.114;2023-02-21T11:35:43;98027.38;;;17.68;100.00
18795;BME280;29610;49.022;12.114;2023-02-21T11:38:30;98028.50;;;17.83;100.00
18795;BME280;29610;49.022;12.114;2023-02-21T11:41:00;98017.66;;;18.28;100.00
18795;BME280;29610;49.022;12.114;2023-02-21T11:43:30;98023.38;;;18.19;100.00
18795;BME280;29610;49.022;12.114;2023-02-21T11:46:17;98020.41;;;18.09;100.00
18795;BME280;29610;49.022;12.114;2023-02-21T11:48:59;98014.19;;;17.93;100.00
18795;BME280;29610;49.022;12.114;2023-02-21T11:51:39;98000.88;;;17.95;100.00
18795;BME280;29610;49.022;12.114;2023-02-21T11:54:10;97990.97;;;17.90;100.00
18795;BME280;29610;49.022;12.114;2023-02-21T11:56:50;97989.59;;;17.46;100.00
18795;BME280;29610;49.022;12.114;2023-02-21T11:59:42;97976.03;;;17.72;100.00
18795;BME280;29610;49.022;12.114;2023-02-21T12:02:45;97969.25;;;18.04;100.00
18795;BME280;29610;49.022;12.114;2023-02-21T12:05:36;97966.13;;;17.68;100.00
18795;BME280;29610;49.022;12.114;2023-02-21T12:08:42;97954.03;;;17.53;100.00
18795;BME280;29610;49.022;12.114;2023-02-21T12:11:47;97964.16;;;17.87;100.00
18795;BME280;29610;49.022;12.114;2023-02-21T12:14:37;97957.44;;;17.46;100.00
18795;BME280;29610;49.022;12.114;2023-02-21T12:17:53;97961.84;;;17.70;100.00
18795;BME280;29610;49.022;12.114;2023-02-21T12:21:30;97958.84;;;17.40;100.00
18795;BME280;29610;49.022;12.114;2023-02-21T12:24:24;97956.34;;;17.89;100.00
18795;BME280;29610;49.022;12.114;2023-02-21T12:27:07;97952.47;;;18.32;100.00
18795;BME280;29610;49.022;12.114;2023-02-21T12:30:01;97942.56;;;18.27;100.00
18795;BME280;29610;49.022;12.114;2023-02-21T12:32:49;97932.59;;;18.19;100.00
18795;BME280;29610;49.022;12.114;2023-02-21T12:36:12;97934.06;;;18.13;100.00
18795;BME280;29610;49.022;12.114;2023-02-21T12:39:05;97939.22;;;17.58;100.00
18795;BME280;29610;49.022;12.114;2023-02-21T12:44:49;97925.56;;;17.80;100.00
18795;BME280;29610;49.022;12.114;2023-02-21T12:47:29;97925.06;;;17.40;100.00
18795;BME280;29610;49.022;12.114;2023-02-21T12:50:07;97917.53;;;17.18;100.00
18795;BME280;29610;49.022;12.114;2023-02-21T12:52:54;97915.03;;;17.47;100.00
18795;BME280;29610;49.022;12.114;2023-02-21T12:55:33;97908.66;;;17.09;100.00
18795;BME280;29610;49.022;12.114;2023-02-21T12:58:18;97902.66;;;17.38;100.00
18795;BME280;29610;49.022;12.114;2023-02-21T13:00:56;97906.69;;;17.60;100.00
18795;BME280;29610;49.022;12.114;2023-02-21T13:03:39;97892.16;;;18.01;100.00
18795;BME280;29610;49.022;12.114;2023-02-21T13:06:20;97880.81;;;18.02;100.00
18795;BME280;29610;49.022;12.114;2023-02-21T13:09:05;97873.84;;;18.31;100.00
18795;BME280;29610;49.022;12.114;2023-02-21T13:11:40;97864.56;;;18.61;100.00
18795;BME280;29610;49.022;12.114;2023-02-21T13:14:15;97864.41;;;18.77;100.00
18795;BME280;29610;49.022;12.114;2023-02-21T13:16:47;97863.97;;;18.49;100.00
18795;BME280;29610;49.022;12.114;2023-02-21T13:19:16;97860.84;;;18.76;100.00
18795;BME280;29610;49.022;12.114;2023-02-21T13:22:01;97856.47;;;18.98;100.00
18795;BME280;29610;49.022;12.114;2023-02-21T13:25:03;97853.00;;;19.31;100.00
18795;BME280;29610;49.022;12.114;2023-02-21T13:27:54;97860.16;;;18.79;100.00
18795;BME280;29610;49.022;12.114;2023-02-21T13:30:37;97851.59;;;18.88;100.00
18795;BME280;29610;49.022;12.114;2023-02-21T13:33:25;97842.75;;;18.27;100.00
18795;BME280;29610;49.022;12.114;2023-02-21T13:35:57;97842.28;;;17.80;100.00
18795;BME280;29610;49.022;12.114;2023-02-21T13:38:30;97845.84;;;17.42;100.00
18795;BME280;29610;49.022;12.114;2023-02-21T13:41:07;97836.22;;;17.71;100.00
18795;BME280;29610;49.022;12.114;2023-02-21T13:43:47;97835.75;;;17.88;100.00
18795;BME280;29610;49.022;12.114;2023-02-21T13:49:40;97831.06;;;17.88;100.00
18795;BME280;29610;49.022;12.114;2023-02-21T13:52:35;97833.38;;;18.31;100.00
18795;BME280;29610;49.022;12.114;2023-02-21T13:55:31;97827.03;;;18.05;100.00